Time,TemperatureF,DewpointF,PressureIn,WindDirection,WindDirectionDegrees,WindSpeedMPH,WindSpeedGustMPH,Humidity,HourlyPrecipIn,Conditions,Clouds,dailyrainin,SolarRadiationWatts/m^2,SoftwareType,DateUTC
2013-08-04 00:02:00,73.0,59.7,29.98,NE,47,5.0,6.0,63,0.00,,,0.00,0,Wunderground v.1.15,2013-08-03 21:02:00,
2013-08-04 00:12:00,72.8,59.5,29.98,NNE,32,4.0,4.0,63,0.00,,,0.00,0,Wunderground v.1.15,2013-08-03 21:12:00,
2013-08-04 00:22:00,72.7,58.9,29.98,ENE,57,3.0,3.0,62,0.00,,,0.00,0,Wunderground v.1.15,2013-08-03 21:22:00,
2013-08-04 00:32:00,72.7,58.9,29.97,NE,35,4.0,5.0,62,0.00,,,0.00,0,Wunderground v.1.15,2013-08-03 21:32:00,
2013-08-04 00:42:00,72.6,59.3,29.97,NE,45,4.0,5.0,63,0.00,,,0.00,0,Wunderground v.1.15,2013-08-03 21:42:00,
2013-08-04 00:52:00,72.6,58.8,29.97,NE,43,5.0,5.0,62,0.00,,,0.00,0,Wunderground v.1.15,2013-08-03 21:52:00,
2013-08-04 01:02:00,72.5,59.2,29.97,NE,34,6.0,6.0,63,0.00,,,0.00,0,Wunderground v.1.15,2013-08-03 22:02:00,
2013-08-04 01:12:00,72.5,58.7,29.97,NNE,24,5.0,5.0,62,0.00,,,0.00,0,Wunderground v.1.15,2013-08-03 22:12:00,
2013-08-04 01:32:00,72.1,58.8,29.97,NE,37,4.0,4.0,63,0.00,,,0.00,0,Wunderground v.1.15,2013-08-03 22:32:00,
2013-08-04 01:42:00,72.1,58.8,29.97,NE,41,4.0,4.0,63,0.00,,,0.00,0,Wunderground v.1.15,2013-08-03 22:42:00,
2013-08-04 01:52:00,72.3,58.5,29.96,NE,36,4.0,6.0,62,0.00,,,0.00,0,Wunderground v.1.15,2013-08-03 22:52:00,
2013-08-04 02:01:00,72.4,58.6,29.96,NE,40,4.0,4.0,62,0.00,,,0.00,0,Wunderground v.1.15,2013-08-03 23:01:00,
2013-08-04 02:12:00,72.4,58.6,29.96,ENE,59,2.0,2.0,62,0.00,,,0.00,0,Wunderground v.1.15,2013-08-03 23:12:00,
2013-08-04 02:22:00,72.4,58.6,29.96,ENE,61,2.0,2.0,62,0.00,,,0.00,0,Wunderground v.1.15,2013-08-03 23:22:00,
2013-08-04 02:31:00,72.3,58.5,29.96,North,5,2.0,3.0,62,0.00,,,0.00,0,Wunderground v.1.15,2013-08-03 23:31:00,
2013-08-04 02:42:00,72.4,58.2,29.95,North,360,3.0,3.0,61,0.00,,,0.00,0,Wunderground v.1.15,2013-08-03 23:42:00,
2013-08-04 02:52:00,72.4,58.2,29.95,NE,34,3.0,3.0,61,0.00,,,0.00,0,Wunderground v.1.15,2013-08-03 23:52:00,
2013-08-04 03:02:00,72.6,57.9,29.95,NNE,26,3.0,3.0,60,0.00,,,0.00,0,Wunderground v.1.15,2013-08-04 00:02:00,
2013-08-04 03:12:00,72.7,58.0,29.95,NNE,17,3.0,3.0,60,0.00,,,0.00,0,Wunderground v.1.15,2013-08-04 00:12:00,
2013-08-04 03:22:00,72.5,57.8,29.95,NE,34,1.0,1.0,60,0.00,,,0.00,0,Wunderground v.1.15,2013-08-04 00:22:00,
2013-08-04 03:32:00,72.4,57.7,29.95,NE,34,0.0,0.0,60,0.00,,,0.00,0,Wunderground v.1.15,2013-08-04 00:32:00,
2013-08-04 03:42:00,72.5,57.4,29.95,North,349,1.0,2.0,59,0.00,,,0.00,0,Wunderground v.1.15,2013-08-04 00:42:00,
2013-08-04 03:52:00,72.5,56.9,29.94,North,360,3.0,3.0,58,0.00,,,0.00,0,Wunderground v.1.15,2013-08-04 00:52:00,
2013-08-04 04:02:00,72.9,56.8,29.94,NNW,344,2.0,3.0,57,0.00,,,0.00,0,Wunderground v.1.15,2013-08-04 01:02:00,
2013-08-04 04:12:00,73.1,56.5,29.94,NNE,13,3.0,3.0,56,0.00,,,0.00,0,Wunderground v.1.15,2013-08-04 01:12:00,
2013-08-04 04:22:00,73.1,56.5,29.94,North,355,3.0,3.0,56,0.00,,,0.00,0,Wunderground v.1.15,2013-08-04 01:22:00,
2013-08-04 04:32:00,73.0,56.9,29.94,North,350,2.0,2.0,57,0.00,,,0.00,0,Wunderground v.1.15,2013-08-04 01:32:00,
2013-08-04 04:42:00,72.9,56.3,29.93,North,5,3.0,3.0,56,0.00,,,0.00,0,Wunderground v.1.15,2013-08-04 01:42:00,
2013-08-04 04:52:00,72.9,55.8,29.93,North,5,3.0,3.0,55,0.00,,,0.00,0,Wunderground v.1.15,2013-08-04 01:52:00,
2013-08-04 05:02:00,73.2,55.6,29.93,North,5,3.0,3.0,54,0.00,,,0.00,0,Wunderground v.1.15,2013-08-04 02:02:00,
2013-08-04 05:12:00,73.0,55.9,29.93,North,5,0.0,0.0,55,0.00,,,0.00,0,Wunderground v.1.15,2013-08-04 02:12:00,
2013-08-04 05:22:00,73.2,55.0,29.93,NNE,13,2.0,2.0,53,0.00,,,0.00,0,Wunderground v.1.15,2013-08-04 02:22:00,
2013-08-04 05:32:00,72.9,55.3,29.93,NNE,15,2.0,3.0,54,0.00,,,0.00,0,Wunderground v.1.15,2013-08-04 02:32:00,
2013-08-04 05:42:00,73.4,54.7,29.93,NNE,26,3.0,3.0,52,0.00,,,0.00,0,Wunderground v.1.15,2013-08-04 02:42:00,
2013-08-04 05:52:00,73.2,55.0,29.93,NNE,24,2.0,2.0,53,0.00,,,0.00,0,Wunderground v.1.15,2013-08-04 02:52:00,
2013-08-04 06:02:00,72.9,54.2,29.93,North,9,0.0,0.0,52,0.00,,,0.00,0,Wunderground v.1.15,2013-08-04 03:02:00,
2013-08-04 06:12:00,73.1,54.4,29.94,North,9,0.0,2.0,52,0.00,,,0.00,9,Wunderground v.1.15,2013-08-04 03:12:00,
2013-08-04 06:22:00,72.7,55.1,29.94,North,9,2.0,3.0,54,0.00,,,0.00,14,Wunderground v.1.15,2013-08-04 03:22:00,
2013-08-04 06:32:00,73.2,55.0,29.94,NNE,16,3.0,3.0,53,0.00,,,0.00,25,Wunderground v.1.15,2013-08-04 03:32:00,
2013-08-04 06:42:00,73.8,54.5,29.94,North,11,2.0,2.0,51,0.00,,,0.00,37,Wunderground v.1.15,2013-08-04 03:42:00,
2013-08-04 07:02:00,74.9,54.4,29.94,North,11,2.0,2.0,49,0.00,,,0.00,81,Wunderground v.1.15,2013-08-04 04:02:00,
2013-08-04 07:12:00,75.4,54.3,29.94,NNE,12,2.0,2.0,48,0.00,,,0.00,113,Wunderground v.1.15,2013-08-04 04:12:00,
2013-08-04 07:22:00,75.3,57.0,29.95,NNW,334,4.0,5.0,53,0.00,,,0.00,142,Wunderground v.1.15,2013-08-04 04:22:00,
2013-08-04 07:32:00,73.8,58.6,29.95,North,351,4.0,4.0,59,0.00,,,0.00,174,Wunderground v.1.15,2013-08-04 04:32:00,
2013-08-04 07:42:00,74.6,57.4,29.95,North,9,4.0,6.0,55,0.00,,,0.00,202,Wunderground v.1.15,2013-08-04 04:42:00,
2013-08-04 07:52:00,75.7,58.4,29.95,North,355,3.0,4.0,55,0.00,,,0.00,243,Wunderground v.1.15,2013-08-04 04:52:00,
2013-08-04 08:02:00,76.0,59.2,29.95,North,360,3.0,3.0,56,0.00,,,0.00,271,Wunderground v.1.15,2013-08-04 05:02:00,
2013-08-04 08:12:00,76.4,59.0,29.96,North,355,4.0,8.0,55,0.00,,,0.00,272,Wunderground v.1.15,2013-08-04 05:12:00,
2013-08-04 08:22:00,76.3,59.4,29.96,NNE,32,6.0,6.0,56,0.00,,,0.00,308,Wunderground v.1.15,2013-08-04 05:22:00,
2013-08-04 08:32:00,76.1,59.8,29.96,North,355,7.0,7.0,57,0.00,,,0.00,334,Wunderground v.1.15,2013-08-04 05:32:00,
2013-08-04 08:42:00,75.7,60.4,29.97,NNE,12,9.0,9.0,59,0.00,,,0.00,364,Wunderground v.1.15,2013-08-04 05:42:00,
2013-08-04 08:51:00,76.1,61.7,29.97,NNE,32,9.0,9.0,61,0.00,,,0.00,392,Wunderground v.1.15,2013-08-04 05:51:00,
2013-08-04 09:02:00,76.4,63.8,29.97,NNE,13,11.0,11.0,65,0.00,,,0.00,417,Wunderground v.1.15,2013-08-04 06:02:00,
2013-08-04 09:12:00,77.0,64.3,29.97,NNE,15,9.0,14.0,65,0.00,,,0.00,446,Wunderground v.1.15,2013-08-04 06:12:00,
2013-08-04 09:22:00,77.4,64.3,29.97,NNE,14,9.0,10.0,64,0.00,,,0.00,475,Wunderground v.1.15,2013-08-04 06:22:00,
2013-08-04 09:32:00,78.0,64.8,29.97,NE,44,9.0,9.0,64,0.00,,,0.00,504,Wunderground v.1.15,2013-08-04 06:32:00,
2013-08-04 09:42:00,78.5,65.3,29.97,ENE,75,8.0,8.0,64,0.00,,,0.00,531,Wunderground v.1.15,2013-08-04 06:42:00,
2013-08-04 09:52:00,78.9,64.3,29.97,NNE,17,8.0,10.0,61,0.00,,,0.00,557,Wunderground v.1.15,2013-08-04 06:52:00,
2013-08-04 10:12:00,80.0,64.4,29.98,NNE,28,7.0,7.0,59,0.00,,,0.00,603,Wunderground v.1.15,2013-08-04 07:12:00,
2013-08-04 10:21:00,81.2,64.5,29.98,North,9,6.0,8.0,57,0.00,,,0.00,628,Wunderground v.1.15,2013-08-04 07:21:00,
2013-08-04 10:32:00,81.0,64.3,29.98,NNW,337,8.0,8.0,57,0.00,,,0.00,649,Wunderground v.1.15,2013-08-04 07:32:00,
2013-08-04 10:42:00,81.4,64.2,29.98,NW,325,7.0,7.0,56,0.00,,,0.00,666,Wunderground v.1.15,2013-08-04 07:42:00,
2013-08-04 10:51:00,82.0,64.2,29.99,NNW,338,7.0,7.0,55,0.00,,,0.00,689,Wunderground v.1.15,2013-08-04 07:51:00,
2013-08-04 11:02:00,82.6,63.7,29.99,East,83,7.0,7.0,53,0.00,,,0.00,707,Wunderground v.1.15,2013-08-04 08:02:00,
2013-08-04 11:11:00,82.2,64.9,29.98,North,11,7.0,10.0,56,0.00,,,0.00,705,Wunderground v.1.15,2013-08-04 08:11:00,
2013-08-04 11:22:00,83.4,65.0,29.98,NNE,21,6.0,6.0,54,0.00,,,0.00,735,Wunderground v.1.15,2013-08-04 08:22:00,
2013-08-04 11:32:00,83.6,65.2,29.99,North,5,6.0,9.0,54,0.00,,,0.00,752,Wunderground v.1.15,2013-08-04 08:32:00,
2013-08-04 11:42:00,83.6,65.2,29.99,NE,34,9.0,9.0,54,0.00,,,0.00,779,Wunderground v.1.15,2013-08-04 08:42:00,
2013-08-04 11:52:00,83.6,65.7,29.99,NNE,17,8.0,8.0,55,0.00,,,0.00,788,Wunderground v.1.15,2013-08-04 08:52:00,
2013-08-04 12:02:00,83.6,66.2,29.99,NNW,336,9.0,9.0,56,0.00,,,0.00,800,Wunderground v.1.15,2013-08-04 09:02:00,
2013-08-04 12:12:00,83.1,66.3,29.99,NNE,17,9.0,10.0,57,0.00,,,0.00,802,Wunderground v.1.15,2013-08-04 09:12:00,
2013-08-04 12:32:00,84.0,63.9,29.99,NNE,25,9.0,10.0,51,0.00,,,0.00,795,Wunderground v.1.15,2013-08-04 09:32:00,
2013-08-04 12:52:00,85.2,61.5,29.99,NE,42,7.0,7.0,45,0.00,,,0.00,833,Wunderground v.1.15,2013-08-04 09:52:00,
2013-08-04 13:02:00,84.8,61.7,29.99,NE,39,9.0,12.0,46,0.00,,,0.00,838,Wunderground v.1.15,2013-08-04 10:02:00,
2013-08-04 13:12:00,84.5,61.4,29.99,North,5,11.0,13.0,46,0.00,,,0.00,835,Wunderground v.1.15,2013-08-04 10:12:00,
2013-08-04 13:22:00,83.9,64.4,29.99,NNE,24,12.0,16.0,52,0.00,,,0.00,828,Wunderground v.1.15,2013-08-04 10:22:00,
2013-08-04 13:32:00,83.1,65.8,29.99,North,9,14.0,14.0,56,0.00,,,0.00,830,Wunderground v.1.15,2013-08-04 10:32:00,
2013-08-04 13:42:00,82.6,61.5,29.99,North,9,16.0,16.0,49,0.00,,,0.00,835,Wunderground v.1.15,2013-08-04 10:42:00,
2013-08-04 13:52:00,84.2,61.8,30.00,North,5,11.0,18.0,47,0.00,,,0.00,823,Wunderground v.1.15,2013-08-04 10:52:00,
2013-08-04 14:01:00,85.1,58.8,30.00,North,355,11.0,11.0,41,0.00,,,0.00,817,Wunderground v.1.15,2013-08-04 11:01:00,
2013-08-04 14:21:00,82.5,66.2,30.00,NNE,24,14.0,14.0,58,0.00,,,0.00,803,Wunderground v.1.15,2013-08-04 11:21:00,
2013-08-04 14:32:00,81.1,66.4,30.00,NE,45,18.0,18.0,61,0.00,,,0.00,789,Wunderground v.1.15,2013-08-04 11:32:00,
2013-08-04 14:42:00,81.7,66.5,30.00,NNE,14,13.0,13.0,60,0.00,,,0.00,777,Wunderground v.1.15,2013-08-04 11:42:00,
2013-08-04 14:52:00,81.2,65.5,30.00,North,9,15.0,21.0,59,0.00,,,0.00,765,Wunderground v.1.15,2013-08-04 11:52:00,
2013-08-04 15:02:00,81.6,66.8,30.00,North,355,15.0,16.0,61,0.00,,,0.00,670,Wunderground v.1.15,2013-08-04 12:02:00,
2013-08-04 15:12:00,80.8,67.0,30.00,North,9,16.0,22.0,63,0.00,,,0.00,745,Wunderground v.1.15,2013-08-04 12:12:00,
2013-08-04 15:22:00,80.6,64.5,30.00,NNE,24,18.0,18.0,58,0.00,,,0.00,714,Wunderground v.1.15,2013-08-04 12:22:00,
2013-08-04 15:32:00,81.1,63.4,30.01,North,360,15.0,19.0,55,0.00,,,0.00,689,Wunderground v.1.15,2013-08-04 12:32:00,
2013-08-04 15:52:00,81.5,65.8,30.01,NNE,32,14.0,14.0,59,0.00,,,0.00,663,Wunderground v.1.15,2013-08-04 12:52:00,
2013-08-04 16:12:00,79.9,66.2,30.01,NNE,33,17.0,17.0,63,0.00,,,0.00,636,Wunderground v.1.15,2013-08-04 13:12:00,
2013-08-04 16:32:00,79.3,66.1,30.01,NNE,29,17.0,21.0,64,0.00,,,0.00,557,Wunderground v.1.15,2013-08-04 13:32:00,
2013-08-04 16:42:00,79.1,65.0,30.02,NNE,12,16.0,16.0,62,0.00,,,0.00,547,Wunderground v.1.15,2013-08-04 13:42:00,
2013-08-04 16:52:00,79.3,65.6,30.02,NNE,12,14.0,14.0,63,0.00,,,0.00,508,Wunderground v.1.15,2013-08-04 13:52:00,
2013-08-04 17:01:00,79.8,65.6,30.02,NNE,15,14.0,14.0,62,0.00,,,0.00,501,Wunderground v.1.15,2013-08-04 14:01:00,
2013-08-04 17:12:00,79.1,65.4,30.02,NNE,28,13.0,14.0,63,0.00,,,0.00,459,Wunderground v.1.15,2013-08-04 14:12:00,
2013-08-04 17:22:00,79.1,65.0,30.02,North,11,16.0,18.0,62,0.00,,,0.00,432,Wunderground v.1.15,2013-08-04 14:22:00,
2013-08-04 17:32:00,78.3,64.2,30.01,NNW,331,17.0,23.0,62,0.00,,,0.00,403,Wunderground v.1.15,2013-08-04 14:32:00,
2013-08-04 17:42:00,78.5,63.9,30.01,NE,37,17.0,17.0,61,0.00,,,0.00,378,Wunderground v.1.15,2013-08-04 14:42:00,
2013-08-04 17:52:00,78.3,63.7,30.02,North,5,17.0,17.0,61,0.00,,,0.00,357,Wunderground v.1.15,2013-08-04 14:52:00,
2013-08-04 18:12:00,78.2,61.2,30.01,North,360,17.0,17.0,56,0.00,,,0.00,301,Wunderground v.1.15,2013-08-04 15:12:00,
2013-08-04 18:22:00,77.9,63.8,30.01,NE,36,17.0,22.0,62,0.00,,,0.00,287,Wunderground v.1.15,2013-08-04 15:22:00,
2013-08-04 18:32:00,77.6,64.5,30.01,NE,39,19.0,21.0,64,0.00,,,0.00,246,Wunderground v.1.15,2013-08-04 15:32:00,
2013-08-04 18:52:00,77.4,65.1,30.02,NNE,23,15.0,24.0,66,0.00,,,0.00,188,Wunderground v.1.15,2013-08-04 15:52:00,
2013-08-04 19:02:00,77.0,64.8,30.02,NNE,26,14.0,14.0,66,0.00,,,0.00,148,Wunderground v.1.15,2013-08-04 16:02:00,
2013-08-04 19:12:00,76.7,64.5,30.02,NNE,13,17.0,21.0,66,0.00,,,0.00,111,Wunderground v.1.15,2013-08-04 16:12:00,
2013-08-04 19:21:00,76.4,64.2,30.02,NNE,19,17.0,17.0,66,0.00,,,0.00,77,Wunderground v.1.15,2013-08-04 16:21:00,
2013-08-04 19:32:00,76.1,63.5,30.02,NNE,33,15.0,19.0,65,0.00,,,0.00,53,Wunderground v.1.15,2013-08-04 16:32:00,
2013-08-04 19:42:00,76.0,63.4,30.02,ENE,59,12.0,15.0,65,0.00,,,0.00,33,Wunderground v.1.15,2013-08-04 16:42:00,
2013-08-04 19:52:00,75.7,63.1,30.03,NNE,12,14.0,14.0,65,0.00,,,0.00,16,Wunderground v.1.15,2013-08-04 16:52:00,
2013-08-04 20:01:00,75.3,63.2,30.03,NNE,28,14.0,14.0,66,0.00,,,0.00,12,Wunderground v.1.15,2013-08-04 17:01:00,
2013-08-04 20:12:00,75.1,63.0,30.03,NNE,19,13.0,13.0,66,0.00,,,0.00,7,Wunderground v.1.15,2013-08-04 17:12:00,
2013-08-04 20:21:00,74.9,63.6,30.03,NE,39,13.0,14.0,68,0.00,,,0.00,0,Wunderground v.1.15,2013-08-04 17:21:00,
2013-08-04 20:32:00,74.5,64.1,30.03,NE,37,13.0,13.0,70,0.00,,,0.00,0,Wunderground v.1.15,2013-08-04 17:32:00,
2013-08-04 20:42:00,74.4,63.6,30.03,North,10,16.0,16.0,69,0.00,,,0.00,0,Wunderground v.1.15,2013-08-04 17:42:00,
2013-08-04 20:52:00,74.2,63.8,30.04,NNE,25,14.0,14.0,70,0.00,,,0.00,0,Wunderground v.1.15,2013-08-04 17:52:00,
2013-08-04 21:02:00,74.0,63.6,30.04,NE,37,12.0,12.0,70,0.00,,,0.00,0,Wunderground v.1.15,2013-08-04 18:02:00,
2013-08-04 21:12:00,73.8,63.8,30.04,NE,37,12.0,12.0,71,0.00,,,0.00,0,Wunderground v.1.15,2013-08-04 18:12:00,
2013-08-04 21:21:00,73.6,63.6,30.05,NNE,22,10.0,10.0,71,0.00,,,0.00,0,Wunderground v.1.15,2013-08-04 18:21:00,
2013-08-04 21:31:00,73.4,63.4,30.05,NNE,27,12.0,13.0,71,0.00,,,0.00,0,Wunderground v.1.15,2013-08-04 18:31:00,
2013-08-04 21:42:00,73.3,62.9,30.05,NNW,344,11.0,11.0,70,0.00,,,0.00,0,Wunderground v.1.15,2013-08-04 18:42:00,
2013-08-04 21:52:00,73.2,62.8,30.05,NNE,24,8.0,8.0,70,0.00,,,0.00,0,Wunderground v.1.15,2013-08-04 18:52:00,
2013-08-04 22:02:00,73.1,62.7,30.05,NE,38,9.0,10.0,70,0.00,,,0.00,0,Wunderground v.1.15,2013-08-04 19:02:00,
2013-08-04 22:12:00,73.1,62.7,30.05,NNE,21,8.0,8.0,70,0.00,,,0.00,0,Wunderground v.1.15,2013-08-04 19:12:00,
2013-08-04 22:22:00,72.9,62.5,30.05,North,355,9.0,9.0,70,0.00,,,0.00,0,Wunderground v.1.15,2013-08-04 19:22:00,
2013-08-04 22:41:00,72.6,62.3,30.05,North,9,7.0,7.0,70,0.00,,,0.00,0,Wunderground v.1.15,2013-08-04 19:41:00,
2013-08-04 22:52:00,72.5,61.7,30.05,North,10,6.0,10.0,69,0.00,,,0.00,0,Wunderground v.1.15,2013-08-04 19:52:00,
2013-08-04 23:02:00,72.4,61.7,30.05,NNE,24,8.0,8.0,69,0.00,,,0.00,0,Wunderground v.1.15,2013-08-04 20:02:00,
2013-08-04 23:12:00,72.4,61.7,30.05,North,355,6.0,7.0,69,0.00,,,0.00,0,Wunderground v.1.15,2013-08-04 20:12:00,
2013-08-04 23:21:00,72.2,61.5,30.05,North,11,6.0,8.0,69,0.00,,,0.00,0,Wunderground v.1.15,2013-08-04 20:21:00,
2013-08-04 23:32:00,72.1,61.8,30.05,NNE,16,5.0,6.0,70,0.00,,,0.00,0,Wunderground v.1.15,2013-08-04 20:32:00,
2013-08-04 23:42:00,72.0,62.1,30.05,NE,36,5.0,6.0,71,0.00,,,0.00,0,Wunderground v.1.15,2013-08-04 20:42:00,
2013-08-04 23:52:00,71.9,62.0,30.05,NNE,32,5.0,5.0,71,0.00,,,0.00,0,Wunderground v.1.15,2013-08-04 20:52:00,